Assonet, Massachusetts
Current Conditions -  °F | °C
As of 6:52 AM on Sunday 23 Nov 2014 (Local Time) from KTAN Reporting Station
Broken Clouds Broken Clouds  
Wind Chill:   Ceiling: 6000
Heat Index:   Visibility: 10mi
Dew Point: -2°   Wind: 12mph
Humidity: 52%   Direction: 220°SW
Pressure: 30.13"   Gusts: 17mph
Location:  41.8°N, 71.07°W
Report Text: KTAN 231152Z AUTO 22010G15KT 10SM BKN060 BKN100 07/M02 A3013 RMK AO2 SLP202 60000 T00721022 10078 20072 53006
Loading
Personal Weather Stations






























Interactive Weather Map New forecast layout! Learn more

10-Day Weather Forecast

Advertisements
Track Severe Weather on mobile